MSC Francesca — 3FXI — position and weather

sailwx.info

Track history (hours):
 
Tides and Currents Weather Stations Pressure Air Temp Water Temp Dewpoint Dewpoint Depression Visibility Wind Speed Wind Dir Waves Ship Positions

MSC Francesca

Last reported at 2017-Nov-17 11:56 UTC. Time now 2017-Dec-17 12:07 UTC.
Position N 37°38' E 016°21'.
Warning: this ship's position is 30 days out of date.

Length 363 m; draft 16 m.

Type: Ship (hazmat cat A). MMSI: 370993000.

Date/timePositionNaut miles runAvg speedWind from/ knotsBaromVisibWave heightAir tempDewpointWater temp
2017-Nov-17 11:56N 37°38' E 016°21'715.9
2017-Nov-17 11:30N 37°41' E 016°13'815.9
2017-Nov-17 11:01N 37°44' E 016°04'815.8
2017-Nov-17 10:31N 37°48' E 015°55'815.7
2017-Nov-17 10:00N 37°51' E 015°46'815.0
2017-Nov-17 09:30N 37°54' E 015°37'713.4
2017-Nov-17 09:01N 37°59' E 015°32'714.8
2017-Nov-17 08:30N 38°07' E 015°34'612.8
2017-Nov-17 08:01N 38°13' E 015°36'816.0
2017-Nov-17 07:30N 38°19' E 015°42'816.4
2017-Nov-17 07:00N 38°25' E 015°49'4 8.1
2017-Nov-17 06:30N 38°27' E 015°54'0 0.6
2017-Nov-17 05:56N 38°27' E 015°54'0 0.0
2017-Nov-17 05:29N 38°27' E 015°54'0 0.0
2017-Nov-17 04:59N 38°27' E 015°54'0 0.0
2017-Nov-17 04:28N 38°27' E 015°54'0 0.0
2017-Nov-17 03:56N 38°27' E 015°54'0 0.0
2017-Nov-17 03:29N 38°27' E 015°54'0 0.0
2017-Nov-17 02:59N 38°27' E 015°54'0 0.0
2017-Nov-17 02:29N 38°27' E 015°54'0 0.0
2017-Nov-17 01:53N 38°27' E 015°54'0 0.0
2017-Nov-17 01:29N 38°27' E 015°54'0 0.0
2017-Nov-17 00:59N 38°27' E 015°54'0 0.0
2017-Nov-17 00:29N 38°27' E 015°54'0 0.0
2017-Nov-16 23:52N 38°27' E 015°54'0 0.0
2017-Nov-16 23:28N 38°27' E 015°54'0 0.0
2017-Nov-16 22:58N 38°27' E 015°54'0 0.0
2017-Nov-16 22:28N 38°27' E 015°54'0 0.0
2017-Nov-16 21:53N 38°27' E 015°54'0 0.0
2017-Nov-16 21:29N 38°27' E 015°54'0 0.0
2017-Nov-16 20:58N 38°27' E 015°54'0 0.0
2017-Nov-16 20:29N 38°27' E 015°54'0 0.0
2017-Nov-16 19:58N 38°27' E 015°54'0 0.0
2017-Nov-16 19:25N 38°27' E 015°54'0 0.0
2017-Nov-16 18:59N 38°27' E 015°54'0 0.0
2017-Nov-16 18:29N 38°27' E 015°54'0 0.0
2017-Nov-16 17:56N 38°27' E 015°54'0 0.5
2017-Nov-16 17:30N 38°27' E 015°54'2 3.3
2017-Nov-16 17:00N 38°27' E 015°52'2 4.3
2017-Nov-16 16:26N 38°28' E 015°49'613.2
2017-Nov-16 16:00N 38°26' E 015°42'816.4
2017-Nov-16 15:30N 38°25' E 015°32'816.5
2017-Nov-16 15:00N 38°22' E 015°22'816.5
2017-Nov-16 14:30N 38°20' E 015°11'816.4
2017-Nov-16 14:00N 38°18' E 015°01'816.2
2017-Nov-16 13:30N 38°18' E 014°51'816.0
2017-Nov-16 13:00N 38°18' E 014°41'917.0
2017-Nov-16 12:30N 38°18' E 014°30'917.5
2017-Nov-16 11:59N 38°18' E 014°18'817.3
2017-Nov-16 11:30N 38°18' E 014°08'917.3
2017-Nov-16 11:00N 38°19' E 013°57'917.5
2017-Nov-16 10:31N 38°19' E 013°46'917.5
2017-Nov-16 10:00N 38°18' E 013°34'917.4
2017-Nov-16 09:30N 38°18' E 013°23'917.1
2017-Nov-16 09:00N 38°18' E 013°12'817.1
2017-Nov-16 08:30N 38°18' E 013°01'816.9
2017-Nov-16 08:00N 38°17' E 012°51'917.2
2017-Nov-16 07:30N 38°16' E 012°40'1017.2
2017-Nov-16 06:56N 38°15' E 012°27'85518.2
2017-Nov-14 08:00N 36°01' W 005°11'816.8
2017-Nov-14 07:30N 35°59' W 005°21'12314.4
2017-Nov-13 22:56N 36°13' W 007°53'614.2
2017-Nov-13 22:30N 36°15' W 007°60'109 5.3
2017-Nov-13 01:57N 37°56' W 008°51'0 0.0
2017-Nov-13 01:30N 37°56' W 008°51'0 0.0
2017-Nov-13 01:00N 37°56' W 008°51'0 0.0
2017-Nov-13 00:30N 37°56' W 008°51'0 0.0
2017-Nov-12 23:57N 37°56' W 008°51'0 0.0
2017-Nov-12 23:30N 37°56' W 008°51'0 0.0
2017-Nov-12 23:00N 37°56' W 008°51'0 0.0
2017-Nov-12 22:30N 37°56' W 008°51'0 0.0
2017-Nov-12 22:00N 37°56' W 008°51'0 0.0
2017-Nov-12 21:30N 37°56' W 008°51'0 0.0
2017-Nov-12 21:00N 37°56' W 008°51'0 0.2
2017-Nov-12 20:30N 37°56' W 008°51'1 1.7
2017-Nov-12 20:01N 37°55' W 008°50'2 4.4
2017-Nov-12 19:31N 37°53' W 008°51'1 1.8
2017-Nov-12 19:01N 37°53' W 008°52'4 8.8
2017-Nov-12 18:31N 37°53' W 008°58'713.9
2017-Nov-12 18:00N 37°56' W 009°06'714.7
2017-Nov-12 17:31N 38°00' W 009°13'815.3
2017-Nov-12 17:01N 38°05' W 009°20'815.9
2017-Nov-12 16:31N 38°11' W 009°28'816.0
2017-Nov-12 16:01N 38°16' W 009°35'816.7
2017-Nov-12 15:30N 38°22' W 009°43'816.8
2017-Nov-12 15:01N 38°27' W 009°52'816.5
2017-Nov-12 14:31N 38°33' W 009°59'815.1
2017-Nov-12 14:01N 38°39' W 010°04'816.4
2017-Nov-12 13:31N 38°47' W 010°04'816.4
2017-Nov-12 13:01N 38°56' W 010°04'816.7
2017-Nov-12 12:31N 39°04' W 010°04'816.9
2017-Nov-12 12:00N 39°12' W 010°04'816.5
2017-Nov-12 11:30N 39°21' W 010°05'816.3
2017-Nov-12 11:01N 39°29' W 010°05'43517.9
2017-Nov-11 10:39N 46°31' W 007°40'318.4
2017-Nov-11 10:29N 46°34' W 007°38'918.6
2017-Nov-11 10:00N 46°41' W 007°31'918.7
2017-Nov-11 09:30N 46°50' W 007°25'2118.5
2017-Nov-11 08:20N 47°08' W 007°10'718.9
2017-Nov-11 07:59N 47°15' W 007°06'919.1
2017-Nov-11 07:30N 47°23' W 006°60'1119.1
2017-Nov-11 06:57N 47°32' W 006°53'1118.7
2017-Nov-11 06:21N 47°42' W 006°44'918.7
2017-Nov-11 05:53N 47°49' W 006°37'1618.9
2017-Nov-11 05:03N 48°03' W 006°26'319.1
2017-Nov-11 04:53N 48°06' W 006°24'819.2
2017-Nov-11 04:29N 48°13' W 006°18'919.4
2017-Nov-11 04:00N 48°21' W 006°12'1319.8
2017-Nov-11 03:19N 48°33' W 006°03'720.2
2017-Nov-11 02:58N 48°39' W 005°58'2019.9
2017-Nov-11 01:58N 48°57' W 005°43'919.0
2017-Nov-11 01:30N 49°01' W 005°31'1019.1
2017-Nov-11 00:58N 49°05' W 005°17'1218.6
2017-Nov-11 00:21N 49°11' W 005°02'718.4
2017-Nov-10 23:59N 49°15' W 004°53'1718.1
2017-Nov-10 23:03N 49°23' W 004°30'418.1
2017-Nov-10 22:51N 49°25' W 004°25'3618.2
2017-Nov-10 20:51N 49°43' W 003°37'2719.5
2017-Nov-10 19:29N 49°56' W 003°00'1020.7
2017-Nov-10 18:59N 49°59' W 002°45'1021.3
2017-Nov-10 18:31N 50°02' W 002°30'1421.8
2017-Nov-10 17:52N 50°05' W 002°09'821.7
2017-Nov-10 17:30N 50°07' W 001°57'1121.3
2017-Nov-10 17:00N 50°10' W 001°41'1020.6
2017-Nov-10 16:30N 50°13' W 001°26'1019.9
2017-Nov-10 16:00N 50°16' W 001°11'1219.1
2017-Nov-10 15:24N 50°19' W 000°53'718.3
2017-Nov-10 15:00N 50°21' W 000°42'918.1
2017-Nov-10 14:30N 50°23' W 000°29'917.9
2017-Nov-10 14:01N 50°26' W 000°16'917.7
2017-Nov-10 13:30N 50°28' W 000°02'1517.6
2017-Nov-10 12:38N 50°32' E 000°21'317.8
2017-Nov-10 12:30N 50°33' E 000°25'918.1
2017-Nov-10 12:01N 50°36' E 000°38'1019.2
2017-Nov-10 11:31N 50°42' E 000°50'1019.7
2017-Nov-10 11:01N 50°48' E 001°02'1020.3
2017-Nov-10 10:31N 50°54' E 001°15'1020.6
2017-Nov-10 10:01N 51°01' E 001°28'1020.5
2017-Nov-10 09:31N 51°08' E 001°39'1020.2
2017-Nov-10 09:00N 51°16' E 001°49'1019.5
2017-Nov-10 08:31N 51°24' E 001°57'918.8
2017-Nov-10 08:01N 51°32' E 002°06'918.5
2017-Nov-10 07:30N 51°39' E 002°16'4017.8
2017-Nov-10 05:15N 52°01' E 003°10'819.1
2017-Nov-10 04:50N 52°02' E 003°23'619.4
2017-Nov-10 04:30N 52°02' E 003°33'918.9
2017-Nov-10 04:01N 52°03' E 003°48'510.1
2017-Nov-10 03:30N 52°01' E 003°56'613.1
2017-Nov-10 03:01N 51°59' E 004°05'1 2.3
2017-Nov-10 02:31N 51°58' E 004°04'0 0.1
2017-Nov-10 01:59N 51°58' E 004°04'0 0.0
2017-Nov-10 01:29N 51°58' E 004°04'0 0.0
2017-Nov-10 00:59N 51°58' E 004°04'0 0.0
2017-Nov-10 00:29N 51°58' E 004°04'0 0.0
2017-Nov-09 23:59N 51°58' E 004°04'0 0.0
2017-Nov-09 23:29N 51°58' E 004°04'0 0.0
2017-Nov-09 22:59N 51°58' E 004°04'0 0.0
2017-Nov-09 22:29N 51°58' E 004°04'0 0.0
2017-Nov-09 21:59N 51°58' E 004°04'0 0.0
2017-Nov-09 21:29N 51°58' E 004°04'0 0.0
2017-Nov-09 20:59N 51°58' E 004°04'0 0.0
2017-Nov-09 20:29N 51°58' E 004°04'0 0.0
2017-Nov-09 19:59N 51°58' E 004°04'0 0.0
2017-Nov-09 19:29N 51°58' E 004°04'0 0.0
2017-Nov-09 18:59N 51°58' E 004°04'0 0.0
2017-Nov-09 18:29N 51°58' E 004°04'0 0.0
2017-Nov-09 17:59N 51°58' E 004°04'0 0.0
2017-Nov-09 17:29N 51°58' E 004°04'0 0.0
2017-Nov-09 16:59N 51°58' E 004°04'0 0.0
2017-Nov-09 16:29N 51°58' E 004°04'0 0.0
2017-Nov-09 15:59N 51°58' E 004°04'0 0.0
2017-Nov-09 15:29N 51°58' E 004°04'0 0.0
2017-Nov-09 14:59N 51°58' E 004°04'0 0.0
2017-Nov-09 14:29N 51°58' E 004°04'0 0.0
2017-Nov-09 13:59N 51°58' E 004°04'0 0.0
2017-Nov-09 13:29N 51°58' E 004°04'0 0.0
2017-Nov-09 12:59N 51°58' E 004°04'0 0.0
2017-Nov-09 12:29N 51°58' E 004°04'0 0.0
2017-Nov-09 11:59N 51°58' E 004°04'0 0.0
2017-Nov-09 11:29N 51°58' E 004°04'0 0.0
2017-Nov-09 10:59N 51°58' E 004°04'0 0.0
2017-Nov-09 10:29N 51°58' E 004°04'0 0.0
2017-Nov-09 09:59N 51°58' E 004°04'0 0.0
2017-Nov-09 09:29N 51°58' E 004°04'0 0.0
2017-Nov-09 08:59N 51°58' E 004°04'0 0.0
2017-Nov-09 08:29N 51°58' E 004°04'0 0.0
2017-Nov-09 07:59N 51°58' E 004°04'0 0.0
2017-Nov-09 07:29N 51°58' E 004°04'0 0.0
2017-Nov-09 06:59N 51°58' E 004°04'0 0.0
2017-Nov-09 06:29N 51°58' E 004°04'0 0.0
2017-Nov-09 05:59N 51°58' E 004°04'0 0.0
2017-Nov-09 05:29N 51°58' E 004°04'0 0.0
2017-Nov-09 04:59N 51°58' E 004°04'0 0.0
2017-Nov-09 04:29N 51°58' E 004°04'0 0.0
2017-Nov-09 03:59N 51°58' E 004°04'0 0.0
2017-Nov-09 03:29N 51°58' E 004°04'0 0.0
2017-Nov-09 02:59N 51°58' E 004°04'0 0.0
2017-Nov-09 02:29N 51°58' E 004°04'0 0.0
2017-Nov-09 01:59N 51°58' E 004°04'0 0.0
2017-Nov-09 01:29N 51°58' E 004°04'0 0.0
2017-Nov-09 00:59N 51°58' E 004°04'0 0.0
2017-Nov-09 00:29N 51°58' E 004°04'0 0.0
2017-Nov-08 23:59N 51°58' E 004°04'0 0.0
2017-Nov-08 23:29N 51°58' E 004°04'0 0.0
2017-Nov-08 22:59N 51°58' E 004°04'0 0.0
2017-Nov-08 22:30N 51°58' E 004°04'1 2.1
2017-Nov-08 22:01N 51°58' E 004°05'5 9.4
2017-Nov-08 21:30N 52°00' E 003°58'613.0
2017-Nov-08 21:00N 52°01' E 003°48'3 6.6
2017-Nov-08 20:30N 52°01' E 003°43'713.7
2017-Nov-08 20:00N 51°58' E 003°33'1618.9
2017-Nov-08 19:11N 51°47' E 003°14'2 9.8
2017-Nov-08 19:00N 51°45' E 003°14'611.7
2017-Nov-08 18:29N 51°39' E 003°11'1118.7
2017-Nov-08 17:55N 51°30' E 003°03'512.7
2017-Nov-08 17:31N 51°25' E 003°02'918.0
2017-Nov-08 17:01N 51°25' E 003°17'917.9
2017-Nov-08 16:31N 51°25' E 003°31'5 9.4
2017-Nov-08 16:01N 51°26' E 003°38'510.5
2017-Nov-08 15:31N 51°22' E 003°44'510.7
2017-Nov-08 15:01N 51°21' E 003°52'612.8
2017-Nov-08 14:31N 51°26' E 003°59'611.2
2017-Nov-08 14:00N 51°22' E 004°05'510.0
2017-Nov-08 13:30N 51°22' E 004°13'4 8.0
2017-Nov-08 13:00N 51°19' E 004°16'1 2.8
2017-Nov-08 12:30N 51°18' E 004°15'0 0.0
2017-Nov-08 12:00N 51°18' E 004°15'0 0.0
2017-Nov-08 11:30N 51°18' E 004°15'0 0.0
2017-Nov-08 11:00N 51°18' E 004°15'0 0.0
2017-Nov-08 10:30N 51°18' E 004°15'0 0.0
2017-Nov-08 10:00N 51°18' E 004°15'0 0.0
2017-Nov-08 09:30N 51°18' E 004°15'0 0.0
2017-Nov-08 09:00N 51°18' E 004°15'0 0.0
2017-Nov-08 08:30N 51°18' E 004°15'0 0.0
2017-Nov-08 08:00N 51°18' E 004°15'0 0.0
2017-Nov-08 07:30N 51°18' E 004°15'0 0.0
2017-Nov-08 07:00N 51°18' E 004°15'0 0.0
2017-Nov-08 06:30N 51°18' E 004°15'0 0.0
2017-Nov-08 06:00N 51°18' E 004°15'0 0.0
2017-Nov-08 05:30N 51°18' E 004°15'0 0.0
2017-Nov-08 05:00N 51°18' E 004°15'0 0.0
2017-Nov-08 04:30N 51°18' E 004°15'0 0.0
2017-Nov-08 04:00N 51°18' E 004°15'0 0.0
2017-Nov-08 03:30N 51°18' E 004°15'0 0.0
2017-Nov-08 03:00N 51°18' E 004°15'0 0.0
2017-Nov-08 02:27N 51°18' E 004°15'0 0.0
2017-Nov-08 02:00N 51°18' E 004°15'0 0.0
2017-Nov-08 01:30N 51°18' E 004°15'0 0.1
2017-Nov-08 01:00N 51°18' E 004°15'0 0.0
2017-Nov-08 00:30N 51°18' E 004°15'0 0.0
2017-Nov-08 00:00N 51°18' E 004°15'0 0.0
2017-Nov-07 23:30N 51°18' E 004°15'0 0.0
2017-Nov-07 23:00N 51°18' E 004°15'0 0.0
2017-Nov-07 22:30N 51°18' E 004°15'0 0.0
2017-Nov-07 22:00N 51°18' E 004°15'0 0.1
2017-Nov-07 21:30N 51°18' E 004°15'0 0.1
2017-Nov-07 21:00N 51°18' E 004°15'0 0.0
2017-Nov-07 20:30N 51°18' E 004°15'0 0.0
2017-Nov-07 19:57N 51°18' E 004°15'0 0.0
2017-Nov-07 19:30N 51°18' E 004°15'0 0.0
2017-Nov-07 19:00N 51°18' E 004°15'0 0.0
2017-Nov-07 18:30N 51°18' E 004°15'0 0.0
2017-Nov-07 18:00N 51°18' E 004°15'0 0.0
2017-Nov-07 17:30N 51°18' E 004°15'0 0.0
2017-Nov-07 17:00N 51°18' E 004°15'0 0.0
2017-Nov-07 16:30N 51°18' E 004°15'0 0.0
2017-Nov-07 16:00N 51°18' E 004°15'0 0.0
2017-Nov-07 15:27N 51°18' E 004°15'0 0.0
2017-Nov-07 15:00N 51°18' E 004°15'0 0.0
2017-Nov-07 14:30N 51°18' E 004°15'0 0.0
2017-Nov-07 14:00N 51°18' E 004°15'0 0.0
2017-Nov-07 13:30N 51°18' E 004°15'0 0.0
2017-Nov-07 13:00N 51°18' E 004°16'0 0.0
2017-Nov-07 12:30N 51°18' E 004°15'0 0.0
2017-Nov-07 12:00N 51°18' E 004°15'  
Track history (hours):
 
Tides and Currents Weather Stations Pressure Air Temp Water Temp Dewpoint Dewpoint Depression Visibility Wind Speed Wind Dir Waves Ship Positions

MSC Francesca

Last reported at 2017-Nov-17 11:56 UTC. Time now 2017-Dec-17 12:07 UTC.
Position N 37°38' E 016°21'.
Warning: this ship's position is 30 days out of date.

Length 363 m; draft 16 m.

Type: Ship (hazmat cat A). MMSI: 370993000.

Date/timePositionNaut miles runAvg speedWind from/ knotsBaromVisibWave heightAir tempDewpointWater temp
2017-Nov-17 11:56N 37°38' E 016°21'715.9
2017-Nov-17 11:30N 37°41' E 016°13'815.9
2017-Nov-17 11:01N 37°44' E 016°04'815.8
2017-Nov-17 10:31N 37°48' E 015°55'815.7
2017-Nov-17 10:00N 37°51' E 015°46'815.0
2017-Nov-17 09:30N 37°54' E 015°37'713.4
2017-Nov-17 09:01N 37°59' E 015°32'714.8
2017-Nov-17 08:30N 38°07' E 015°34'612.8
2017-Nov-17 08:01N 38°13' E 015°36'816.0
2017-Nov-17 07:30N 38°19' E 015°42'816.4
2017-Nov-17 07:00N 38°25' E 015°49'4 8.1
2017-Nov-17 06:30N 38°27' E 015°54'0 0.6
2017-Nov-17 05:56N 38°27' E 015°54'0 0.0
2017-Nov-17 05:29N 38°27' E 015°54'0 0.0
2017-Nov-17 04:59N 38°27' E 015°54'0 0.0
2017-Nov-17 04:28N 38°27' E 015°54'0 0.0
2017-Nov-17 03:56N 38°27' E 015°54'0 0.0
2017-Nov-17 03:29N 38°27' E 015°54'0 0.0
2017-Nov-17 02:59N 38°27' E 015°54'0 0.0
2017-Nov-17 02:29N 38°27' E 015°54'0 0.0
2017-Nov-17 01:53N 38°27' E 015°54'0 0.0
2017-Nov-17 01:29N 38°27' E 015°54'0 0.0
2017-Nov-17 00:59N 38°27' E 015°54'0 0.0
2017-Nov-17 00:29N 38°27' E 015°54'0 0.0
2017-Nov-16 23:52N 38°27' E 015°54'0 0.0
2017-Nov-16 23:28N 38°27' E 015°54'0 0.0
2017-Nov-16 22:58N 38°27' E 015°54'0 0.0
2017-Nov-16 22:28N 38°27' E 015°54'0 0.0
2017-Nov-16 21:53N 38°27' E 015°54'0 0.0
2017-Nov-16 21:29N 38°27' E 015°54'0 0.0
2017-Nov-16 20:58N 38°27' E 015°54'0 0.0
2017-Nov-16 20:29N 38°27' E 015°54'0 0.0
2017-Nov-16 19:58N 38°27' E 015°54'0 0.0
2017-Nov-16 19:25N 38°27' E 015°54'0 0.0
2017-Nov-16 18:59N 38°27' E 015°54'0 0.0
2017-Nov-16 18:29N 38°27' E 015°54'0 0.0
2017-Nov-16 17:56N 38°27' E 015°54'0 0.5
2017-Nov-16 17:30N 38°27' E 015°54'2 3.3
2017-Nov-16 17:00N 38°27' E 015°52'2 4.3
2017-Nov-16 16:26N 38°28' E 015°49'613.2
2017-Nov-16 16:00N 38°26' E 015°42'816.4
2017-Nov-16 15:30N 38°25' E 015°32'816.5
2017-Nov-16 15:00N 38°22' E 015°22'816.5
2017-Nov-16 14:30N 38°20' E 015°11'816.4
2017-Nov-16 14:00N 38°18' E 015°01'816.2
2017-Nov-16 13:30N 38°18' E 014°51'816.0
2017-Nov-16 13:00N 38°18' E 014°41'917.0
2017-Nov-16 12:30N 38°18' E 014°30'917.5
2017-Nov-16 11:59N 38°18' E 014°18'817.3
2017-Nov-16 11:30N 38°18' E 014°08'917.3
2017-Nov-16 11:00N 38°19' E 013°57'917.5
2017-Nov-16 10:31N 38°19' E 013°46'917.5
2017-Nov-16 10:00N 38°18' E 013°34'917.4
2017-Nov-16 09:30N 38°18' E 013°23'917.1
2017-Nov-16 09:00N 38°18' E 013°12'817.1
2017-Nov-16 08:30N 38°18' E 013°01'816.9
2017-Nov-16 08:00N 38°17' E 012°51'917.2
2017-Nov-16 07:30N 38°16' E 012°40'1017.2
2017-Nov-16 06:56N 38°15' E 012°27'85518.2
2017-Nov-14 08:00N 36°01' W 005°11'816.8
2017-Nov-14 07:30N 35°59' W 005°21'12314.4
2017-Nov-13 22:56N 36°13' W 007°53'614.2
2017-Nov-13 22:30N 36°15' W 007°60'109 5.3
2017-Nov-13 01:57N 37°56' W 008°51'0 0.0
2017-Nov-13 01:30N 37°56' W 008°51'0 0.0
2017-Nov-13 01:00N 37°56' W 008°51'0 0.0
2017-Nov-13 00:30N 37°56' W 008°51'0 0.0
2017-Nov-12 23:57N 37°56' W 008°51'0 0.0
2017-Nov-12 23:30N 37°56' W 008°51'0 0.0
2017-Nov-12 23:00N 37°56' W 008°51'0 0.0
2017-Nov-12 22:30N 37°56' W 008°51'0 0.0
2017-Nov-12 22:00N 37°56' W 008°51'0 0.0
2017-Nov-12 21:30N 37°56' W 008°51'0 0.0
2017-Nov-12 21:00N 37°56' W 008°51'0 0.2
2017-Nov-12 20:30N 37°56' W 008°51'1 1.7
2017-Nov-12 20:01N 37°55' W 008°50'2 4.4
2017-Nov-12 19:31N 37°53' W 008°51'1 1.8
2017-Nov-12 19:01N 37°53' W 008°52'4 8.8
2017-Nov-12 18:31N 37°53' W 008°58'713.9
2017-Nov-12 18:00N 37°56' W 009°06'714.7
2017-Nov-12 17:31N 38°00' W 009°13'815.3
2017-Nov-12 17:01N 38°05' W 009°20'815.9
2017-Nov-12 16:31N 38°11' W 009°28'816.0
2017-Nov-12 16:01N 38°16' W 009°35'816.7
2017-Nov-12 15:30N 38°22' W 009°43'816.8
2017-Nov-12 15:01N 38°27' W 009°52'816.5
2017-Nov-12 14:31N 38°33' W 009°59'815.1
2017-Nov-12 14:01N 38°39' W 010°04'816.4
2017-Nov-12 13:31N 38°47' W 010°04'816.4
2017-Nov-12 13:01N 38°56' W 010°04'816.7
2017-Nov-12 12:31N 39°04' W 010°04'816.9
2017-Nov-12 12:00N 39°12' W 010°04'816.5
2017-Nov-12 11:30N 39°21' W 010°05'816.3
2017-Nov-12 11:01N 39°29' W 010°05'43517.9
2017-Nov-11 10:39N 46°31' W 007°40'318.4
2017-Nov-11 10:29N 46°34' W 007°38'918.6
2017-Nov-11 10:00N 46°41' W 007°31'918.7
2017-Nov-11 09:30N 46°50' W 007°25'2118.5
2017-Nov-11 08:20N 47°08' W 007°10'718.9
2017-Nov-11 07:59N 47°15' W 007°06'919.1
2017-Nov-11 07:30N 47°23' W 006°60'1119.1
2017-Nov-11 06:57N 47°32' W 006°53'1118.7
2017-Nov-11 06:21N 47°42' W 006°44'918.7
2017-Nov-11 05:53N 47°49' W 006°37'1618.9
2017-Nov-11 05:03N 48°03' W 006°26'319.1
2017-Nov-11 04:53N 48°06' W 006°24'819.2
2017-Nov-11 04:29N 48°13' W 006°18'919.4
2017-Nov-11 04:00N 48°21' W 006°12'1319.8
2017-Nov-11 03:19N 48°33' W 006°03'720.2
2017-Nov-11 02:58N 48°39' W 005°58'2019.9
2017-Nov-11 01:58N 48°57' W 005°43'919.0
2017-Nov-11 01:30N 49°01' W 005°31'1019.1
2017-Nov-11 00:58N 49°05' W 005°17'1218.6
2017-Nov-11 00:21N 49°11' W 005°02'718.4
2017-Nov-10 23:59N 49°15' W 004°53'1718.1
2017-Nov-10 23:03N 49°23' W 004°30'418.1
2017-Nov-10 22:51N 49°25' W 004°25'3618.2
2017-Nov-10 20:51N 49°43' W 003°37'2719.5
2017-Nov-10 19:29N 49°56' W 003°00'1020.7
2017-Nov-10 18:59N 49°59' W 002°45'1021.3
2017-Nov-10 18:31N 50°02' W 002°30'1421.8
2017-Nov-10 17:52N 50°05' W 002°09'821.7
2017-Nov-10 17:30N 50°07' W 001°57'1121.3
2017-Nov-10 17:00N 50°10' W 001°41'1020.6
2017-Nov-10 16:30N 50°13' W 001°26'1019.9
2017-Nov-10 16:00N 50°16' W 001°11'1219.1
2017-Nov-10 15:24N 50°19' W 000°53'718.3
2017-Nov-10 15:00N 50°21' W 000°42'918.1
2017-Nov-10 14:30N 50°23' W 000°29'917.9
2017-Nov-10 14:01N 50°26' W 000°16'917.7
2017-Nov-10 13:30N 50°28' W 000°02'1517.6
2017-Nov-10 12:38N 50°32' E 000°21'317.8
2017-Nov-10 12:30N 50°33' E 000°25'918.1
2017-Nov-10 12:01N 50°36' E 000°38'1019.2
2017-Nov-10 11:31N 50°42' E 000°50'1019.7
2017-Nov-10 11:01N 50°48' E 001°02'1020.3
2017-Nov-10 10:31N 50°54' E 001°15'1020.6
2017-Nov-10 10:01N 51°01' E 001°28'1020.5
2017-Nov-10 09:31N 51°08' E 001°39'1020.2
2017-Nov-10 09:00N 51°16' E 001°49'1019.5
2017-Nov-10 08:31N 51°24' E 001°57'918.8
2017-Nov-10 08:01N 51°32' E 002°06'918.5
2017-Nov-10 07:30N 51°39' E 002°16'4017.8
2017-Nov-10 05:15N 52°01' E 003°10'819.1
2017-Nov-10 04:50N 52°02' E 003°23'619.4
2017-Nov-10 04:30N 52°02' E 003°33'918.9
2017-Nov-10 04:01N 52°03' E 003°48'510.1
2017-Nov-10 03:30N 52°01' E 003°56'613.1
2017-Nov-10 03:01N 51°59' E 004°05'1 2.3
2017-Nov-10 02:31N 51°58' E 004°04'0 0.1
2017-Nov-10 01:59N 51°58' E 004°04'0 0.0
2017-Nov-10 01:29N 51°58' E 004°04'0 0.0
2017-Nov-10 00:59N 51°58' E 004°04'0 0.0
2017-Nov-10 00:29N 51°58' E 004°04'0 0.0
2017-Nov-09 23:59N 51°58' E 004°04'0 0.0
2017-Nov-09 23:29N 51°58' E 004°04'0 0.0
2017-Nov-09 22:59N 51°58' E 004°04'0 0.0
2017-Nov-09 22:29N 51°58' E 004°04'0 0.0
2017-Nov-09 21:59N 51°58' E 004°04'0 0.0
2017-Nov-09 21:29N 51°58' E 004°04'0 0.0
2017-Nov-09 20:59N 51°58' E 004°04'0 0.0
2017-Nov-09 20:29N 51°58' E 004°04'0 0.0
2017-Nov-09 19:59N 51°58' E 004°04'0 0.0
2017-Nov-09 19:29N 51°58' E 004°04'0 0.0
2017-Nov-09 18:59N 51°58' E 004°04'0 0.0
2017-Nov-09 18:29N 51°58' E 004°04'0 0.0
2017-Nov-09 17:59N 51°58' E 004°04'0 0.0
2017-Nov-09 17:29N 51°58' E 004°04'0 0.0
2017-Nov-09 16:59N 51°58' E 004°04'0 0.0
2017-Nov-09 16:29N 51°58' E 004°04'0 0.0
2017-Nov-09 15:59N 51°58' E 004°04'0 0.0
2017-Nov-09 15:29N 51°58' E 004°04'0 0.0
2017-Nov-09 14:59N 51°58' E 004°04'0 0.0
2017-Nov-09 14:29N 51°58' E 004°04'0 0.0
2017-Nov-09 13:59N 51°58' E 004°04'0 0.0
2017-Nov-09 13:29N 51°58' E 004°04'0 0.0
2017-Nov-09 12:59N 51°58' E 004°04'0 0.0
2017-Nov-09 12:29N 51°58' E 004°04'0 0.0
2017-Nov-09 11:59N 51°58' E 004°04'0 0.0
2017-Nov-09 11:29N 51°58' E 004°04'0 0.0
2017-Nov-09 10:59N 51°58' E 004°04'0 0.0
2017-Nov-09 10:29N 51°58' E 004°04'0 0.0
2017-Nov-09 09:59N 51°58' E 004°04'0 0.0
2017-Nov-09 09:29N 51°58' E 004°04'0 0.0
2017-Nov-09 08:59N 51°58' E 004°04'0 0.0
2017-Nov-09 08:29N 51°58' E 004°04'0 0.0
2017-Nov-09 07:59N 51°58' E 004°04'0 0.0
2017-Nov-09 07:29N 51°58' E 004°04'0 0.0
2017-Nov-09 06:59N 51°58' E 004°04'0 0.0
2017-Nov-09 06:29N 51°58' E 004°04'0 0.0
2017-Nov-09 05:59N 51°58' E 004°04'0 0.0
2017-Nov-09 05:29N 51°58' E 004°04'0 0.0
2017-Nov-09 04:59N 51°58' E 004°04'0 0.0
2017-Nov-09 04:29N 51°58' E 004°04'0 0.0
2017-Nov-09 03:59N 51°58' E 004°04'0 0.0
2017-Nov-09 03:29N 51°58' E 004°04'0 0.0
2017-Nov-09 02:59N 51°58' E 004°04'0 0.0
2017-Nov-09 02:29N 51°58' E 004°04'0 0.0
2017-Nov-09 01:59N 51°58' E 004°04'0 0.0
2017-Nov-09 01:29N 51°58' E 004°04'0 0.0
2017-Nov-09 00:59N 51°58' E 004°04'0 0.0
2017-Nov-09 00:29N 51°58' E 004°04'0 0.0
2017-Nov-08 23:59N 51°58' E 004°04'0 0.0
2017-Nov-08 23:29N 51°58' E 004°04'0 0.0
2017-Nov-08 22:59N 51°58' E 004°04'0 0.0
2017-Nov-08 22:30N 51°58' E 004°04'1 2.1
2017-Nov-08 22:01N 51°58' E 004°05'5 9.4
2017-Nov-08 21:30N 52°00' E 003°58'613.0
2017-Nov-08 21:00N 52°01' E 003°48'3 6.6
2017-Nov-08 20:30N 52°01' E 003°43'713.7
2017-Nov-08 20:00N 51°58' E 003°33'1618.9
2017-Nov-08 19:11N 51°47' E 003°14'2 9.8
2017-Nov-08 19:00N 51°45' E 003°14'611.7
2017-Nov-08 18:29N 51°39' E 003°11'1118.7
2017-Nov-08 17:55N 51°30' E 003°03'512.7
2017-Nov-08 17:31N 51°25' E 003°02'918.0
2017-Nov-08 17:01N 51°25' E 003°17'917.9
2017-Nov-08 16:31N 51°25' E 003°31'5 9.4
2017-Nov-08 16:01N 51°26' E 003°38'510.5
2017-Nov-08 15:31N 51°22' E 003°44'510.7
2017-Nov-08 15:01N 51°21' E 003°52'612.8
2017-Nov-08 14:31N 51°26' E 003°59'611.2
2017-Nov-08 14:00N 51°22' E 004°05'510.0
2017-Nov-08 13:30N 51°22' E 004°13'4 8.0
2017-Nov-08 13:00N 51°19' E 004°16'1 2.8
2017-Nov-08 12:30N 51°18' E 004°15'0 0.0
2017-Nov-08 12:00N 51°18' E 004°15'0 0.0
2017-Nov-08 11:30N 51°18' E 004°15'0 0.0
2017-Nov-08 11:00N 51°18' E 004°15'0 0.0
2017-Nov-08 10:30N 51°18' E 004°15'0 0.0
2017-Nov-08 10:00N 51°18' E 004°15'0 0.0
2017-Nov-08 09:30N 51°18' E 004°15'0 0.0
2017-Nov-08 09:00N 51°18' E 004°15'0 0.0
2017-Nov-08 08:30N 51°18' E 004°15'0 0.0
2017-Nov-08 08:00N 51°18' E 004°15'0 0.0
2017-Nov-08 07:30N 51°18' E 004°15'0 0.0
2017-Nov-08 07:00N 51°18' E 004°15'0 0.0
2017-Nov-08 06:30N 51°18' E 004°15'0 0.0
2017-Nov-08 06:00N 51°18' E 004°15'0 0.0
2017-Nov-08 05:30N 51°18' E 004°15'0 0.0
2017-Nov-08 05:00N 51°18' E 004°15'0 0.0
2017-Nov-08 04:30N 51°18' E 004°15'0 0.0
2017-Nov-08 04:00N 51°18' E 004°15'0 0.0
2017-Nov-08 03:30N 51°18' E 004°15'0 0.0
2017-Nov-08 03:00N 51°18' E 004°15'0 0.0
2017-Nov-08 02:27N 51°18' E 004°15'0 0.0
2017-Nov-08 02:00N 51°18' E 004°15'0 0.0
2017-Nov-08 01:30N 51°18' E 004°15'0 0.1
2017-Nov-08 01:00N 51°18' E 004°15'0 0.0
2017-Nov-08 00:30N 51°18' E 004°15'0 0.0
2017-Nov-08 00:00N 51°18' E 004°15'0 0.0
2017-Nov-07 23:30N 51°18' E 004°15'0 0.0
2017-Nov-07 23:00N 51°18' E 004°15'0 0.0
2017-Nov-07 22:30N 51°18' E 004°15'0 0.0
2017-Nov-07 22:00N 51°18' E 004°15'0 0.1
2017-Nov-07 21:30N 51°18' E 004°15'0 0.1
2017-Nov-07 21:00N 51°18' E 004°15'0 0.0
2017-Nov-07 20:30N 51°18' E 004°15'0 0.0
2017-Nov-07 19:57N 51°18' E 004°15'0 0.0
2017-Nov-07 19:30N 51°18' E 004°15'0 0.0
2017-Nov-07 19:00N 51°18' E 004°15'0 0.0
2017-Nov-07 18:30N 51°18' E 004°15'0 0.0
2017-Nov-07 18:00N 51°18' E 004°15'0 0.0
2017-Nov-07 17:30N 51°18' E 004°15'0 0.0
2017-Nov-07 17:00N 51°18' E 004°15'0 0.0
2017-Nov-07 16:30N 51°18' E 004°15'0 0.0
2017-Nov-07 16:00N 51°18' E 004°15'0 0.0
2017-Nov-07 15:27N 51°18' E 004°15'0 0.0
2017-Nov-07 15:00N 51°18' E 004°15'0 0.0
2017-Nov-07 14:30N 51°18' E 004°15'0 0.0
2017-Nov-07 14:00N 51°18' E 004°15'0 0.0
2017-Nov-07 13:30N 51°18' E 004°15'0 0.0
2017-Nov-07 13:00N 51°18' E 004°16'0 0.0
2017-Nov-07 12:30N 51°18' E 004°15'0 0.0
2017-Nov-07 12:00N 51°18' E 004°15'  

Dump ship's entire track history